CheckWX is a tool to help pilots better visualize weather data.  It is not intended as a substitute for an official pre-flight weather briefing.

18:24:18 UTC

LFPB METAR
Paris-Le Bourget Airport
Paris, France
Current

24 mins ago

LFPB 201800Z AUTO 07008KT CAVOK 19/M01 Q1019 NOSIG
Observed
Sep-20 @ 18:00 UTC
Wind
  • 070° at 8 KTS
Visibility
10,000+ meters
Flight Rules
VFR
Cloud Levels
  • Clear skies
Temperature
19°C / 66°F
Dewpoint
-1°C / 30°F
Humidity
26%
Altimeter
30.09" Hg
Pressure
1018.92 hPa
Previous

54 mins ago

LFPB 201730Z AUTO 08010KT CAVOK 21/M01 Q1019 NOSIG
Observed
Sep-20 @ 17:30 UTC
Wind
  • 080° at 10 KTS
Visibility
10,000+ meters
Flight Rules
VFR
Cloud Levels
  • Clear skies
Temperature
21°C / 70°F
Dewpoint
-1°C / 30°F
Humidity
23%
Altimeter
30.09" Hg
Pressure
1018.92 hPa
Previous

1 hour ago

LFPB 201700Z AUTO 07012KT CAVOK 23/M02 Q1019 NOSIG
Observed
Sep-20 @ 17:00 UTC
Wind
  • 070° at 12 KTS
Visibility
10,000+ meters
Flight Rules
VFR
Cloud Levels
  • Clear skies
Temperature
23°C / 73°F
Dewpoint
-2°C / 28°F
Humidity
19%
Altimeter
30.09" Hg
Pressure
1018.92 hPa